Time;durP1;ratioP1;P1;durP2;ratioP2;P2;SDS_P1;SDS_P2;PMS_P1;PMS_P2;Temp;Humidity;BMP_temperature;BMP_pressure;BME280_temperature;BME280_humidity;BME280_pressure;Samples;Min_cycle;Max_cycle;Signal;HPM_P1;HPM_P2
2022/11/05 00:10:58;;;;;;;0.70;0.70;;;7.40;99.90;;;;;;4958189;28;20296;-83
2022/11/05 00:19:08;;;;;;;0.80;0.80;;;7.30;99.90;;;;;;4971862;28;20408;-83
2022/11/05 00:27:06;;;;;;;0.70;0.70;;;7.30;99.90;;;;;;4972329;28;20828;-82
2022/11/05 00:29:32;;;;;;;0.70;0.70;;;7.30;99.90;;;;;;4971012;28;20044;-82
2022/11/05 00:31:58;;;;;;;0.70;0.70;;;7.20;99.90;;;;;;4971391;28;20465;-83
2022/11/05 00:34:23;;;;;;;0.63;0.63;;;7.30;99.90;;;;;;4991393;28;20516;-82
2022/11/05 00:36:49;;;;;;;0.60;0.60;;;7.20;99.90;;;;;;4977111;28;20052;-83
2022/11/05 00:39:15;;;;;;;0.70;0.70;;;7.30;99.90;;;;;;4973346;28;20040;-83
2022/11/05 00:41:41;;;;;;;0.60;0.60;;;7.20;99.90;;;;;;4955584;28;20040;-82
2022/11/05 00:49:28;;;;;;;0.60;0.60;;;7.20;99.90;;;;;;4980678;28;20040;-83
2022/11/05 00:49:39;;;;;;;0.60;0.60;;;7.00;99.90;;;;;;4963761;28;20135;-84
2022/11/05 00:54:52;;;;;;;0.60;0.60;;;6.90;99.90;;;;;;4956858;28;20530;-83
2022/11/05 00:57:18;;;;;;;0.60;0.60;;;6.90;99.90;;;;;;4956565;28;20435;-83
2022/11/05 00:59:43;;;;;;;0.60;0.60;;;6.90;99.90;;;;;;4954436;28;20132;-83
2022/11/05 01:02:09;;;;;;;0.60;0.60;;;6.90;99.90;;;;;;4968918;28;20051;-84
2022/11/05 01:04:37;;;;;;;0.70;0.70;;;6.90;99.90;;;;;;4949053;28;20395;-84
2022/11/05 01:07:02;;;;;;;0.70;0.70;;;6.90;99.90;;;;;;4973361;28;20904;-83
2022/11/05 01:09:28;;;;;;;0.70;0.70;;;6.80;99.90;;;;;;4949799;28;20055;-83
2022/11/05 01:11:54;;;;;;;0.70;0.70;;;6.70;99.90;;;;;;4980081;28;20372;-83
2022/11/05 01:14:20;;;;;;;0.70;0.70;;;6.80;99.90;;;;;;4956111;28;20043;-83
2022/11/05 01:16:45;;;;;;;0.70;0.70;;;6.60;99.90;;;;;;4984744;28;20048;-84
2022/11/05 01:19:12;;;;;;;0.60;0.60;;;6.40;99.90;;;;;;4954768;28;20048;-82
2022/11/05 01:21:38;;;;;;;0.60;0.60;;;6.50;99.90;;;;;;4974529;28;20048;-83
2022/11/05 01:24:04;;;;;;;0.70;0.70;;;6.50;99.90;;;;;;4972975;28;20894;-83
2022/11/05 01:26:30;;;;;;;0.70;0.70;;;6.60;99.90;;;;;;4973329;28;20132;-83
2022/11/05 01:28:59;;;;;;;0.70;0.70;;;6.60;99.90;;;;;;4955349;28;20060;-83
2022/11/05 01:31:25;;;;;;;0.65;0.65;;;6.70;99.90;;;;;;4958189;28;20566;-82
2022/11/05 01:33:51;;;;;;;0.60;0.60;;;6.70;99.90;;;;;;4948079;28;20416;-83
2022/11/05 01:36:17;;;;;;;0.70;0.70;;;6.80;99.90;;;;;;4975478;28;20311;-83
2022/11/05 01:38:43;;;;;;;0.60;0.60;;;7.00;99.90;;;;;;4938355;28;20055;-82
2022/11/05 01:41:09;;;;;;;0.70;0.70;;;7.10;99.90;;;;;;4962322;28;20525;-83
2022/11/05 01:43:56;;;;;;;0.60;0.60;;;7.00;99.90;;;;;;4941259;28;20135;-83
2022/11/05 01:46:30;;;;;;;0.63;0.63;;;7.00;99.90;;;;;;4966257;28;20047;-83
2022/11/05 01:49:09;;;;;;;0.60;0.60;;;7.00;99.90;;;;;;4976051;28;20131;-82
2022/11/05 01:51:35;;;;;;;0.70;0.70;;;7.00;99.90;;;;;;4965120;28;20132;-85
2022/11/05 01:54:05;;;;;;;0.60;0.60;;;7.00;99.90;;;;;;4976182;28;20544;-83
2022/11/05 01:56:48;;;;;;;0.70;0.70;;;6.90;99.90;;;;;;4988282;28;20124;-82
2022/11/05 01:59:19;;;;;;;0.70;0.70;;;6.80;99.90;;;;;;4973151;28;20127;-83
2022/11/05 02:01:45;;;;;;;0.70;0.70;;;6.70;99.90;;;;;;4966660;28;20186;-82
2022/11/05 02:04:16;;;;;;;0.70;0.70;;;6.70;99.90;;;;;;4974993;28;20055;-83
2022/11/05 02:06:45;;;;;;;0.70;0.70;;;6.80;99.90;;;;;;4974503;28;20947;-83
2022/11/05 02:09:38;;;;;;;0.70;0.70;;;7.00;99.90;;;;;;4950960;28;20432;-83
2022/11/05 02:12:06;;;;;;;0.60;0.60;;;6.80;99.90;;;;;;4968678;28;20607;-82
2022/11/05 02:14:31;;;;;;;0.70;0.70;;;7.00;99.90;;;;;;4974525;28;20048;-83
2022/11/05 02:17:03;;;;;;;0.60;0.60;;;6.80;99.90;;;;;;4986221;28;20048;-83
2022/11/05 02:19:38;;;;;;;0.60;0.60;;;6.60;99.90;;;;;;4975553;28;20047;-82
2022/11/05 02:22:29;;;;;;;0.60;0.60;;;6.70;99.90;;;;;;4978134;28;20044;-83
2022/11/05 02:25:18;;;;;;;0.70;0.70;;;6.60;99.90;;;;;;4975732;28;20056;-83
2022/11/05 02:27:47;;;;;;;0.70;0.70;;;6.80;99.90;;;;;;4975635;28;20056;-82
2022/11/05 02:30:52;;;;;;;0.70;0.70;;;6.60;99.90;;;;;;4953586;28;20069;-82
2022/11/05 02:33:31;;;;;;;0.68;0.68;;;6.70;99.90;;;;;;4969324;28;20430;-83
2022/11/05 02:36:00;;;;;;;0.60;0.60;;;6.60;99.90;;;;;;4979245;28;20131;-83
2022/11/05 02:38:31;;;;;;;0.60;0.60;;;6.60;99.90;;;;;;4978129;28;20075;-83
2022/11/05 02:41:00;;;;;;;0.60;0.60;;;6.70;99.90;;;;;;4975945;28;20291;-82
2022/11/05 02:43:35;;;;;;;0.60;0.60;;;6.60;99.90;;;;;;4983233;28;20049;-83
2022/11/05 02:46:27;;;;;;;0.70;0.70;;;6.50;99.90;;;;;;4967050;28;20489;-83
2022/11/05 02:49:07;;;;;;;0.70;0.70;;;6.60;99.90;;;;;;4963311;28;20133;-82
2022/11/05 02:51:36;;;;;;;0.60;0.60;;;6.40;99.90;;;;;;4977582;28;20047;-83
2022/11/05 02:54:07;;;;;;;0.60;0.60;;;6.50;99.90;;;;;;4953784;28;20048;-83
2022/11/05 02:56:38;;;;;;;0.63;0.63;;;6.50;99.90;;;;;;4975800;28;20566;-82
2022/11/05 02:59:04;;;;;;;0.60;0.60;;;6.40;99.90;;;;;;4972840;28;20048;-83
2022/11/05 03:01:30;;;;;;;0.70;0.70;;;6.50;99.90;;;;;;4952608;28;20131;-83
2022/11/05 03:04:02;;;;;;;0.60;0.60;;;6.20;99.90;;;;;;4950402;28;20803;-83
2022/11/05 03:06:28;;;;;;;0.60;0.60;;;6.30;99.90;;;;;;4982528;28;20074;-83
2022/11/05 03:09:22;;;;;;;0.60;0.60;;;6.20;99.90;;;;;;4986928;28;21007;-82
2022/11/05 03:12:01;;;;;;;0.70;0.70;;;6.20;99.90;;;;;;4984367;28;20067;-82
2022/11/05 03:14:43;;;;;;;0.60;0.60;;;6.20;99.90;;;;;;4977592;28;20132;-82
2022/11/05 03:17:32;;;;;;;0.70;0.70;;;6.20;99.90;;;;;;4977075;28;20132;-83
2022/11/05 03:20:18;;;;;;;0.70;0.70;;;6.00;99.90;;;;;;4959904;28;20309;-82
2022/11/05 03:22:53;;;;;;;0.60;0.60;;;6.10;99.90;;;;;;4971455;28;20052;-82
2022/11/05 03:25:23;;;;;;;0.70;0.70;;;6.00;99.90;;;;;;4981392;28;20052;-82
2022/11/05 03:27:54;;;;;;;0.70;0.70;;;6.00;99.90;;;;;;4981682;28;20055;-82
2022/11/05 03:30:20;;;;;;;0.70;0.70;;;6.00;99.90;;;;;;4983000;28;20159;-82
2022/11/05 03:32:52;;;;;;;0.70;0.70;;;5.90;99.90;;;;;;4997591;28;20044;-82
2022/11/05 03:35:50;;;;;;;0.70;0.70;;;6.10;99.90;;;;;;4953147;28;20512;-81
2022/11/05 03:38:27;;;;;;;0.70;0.70;;;5.90;99.90;;;;;;4964898;28;20058;-83
2022/11/05 03:40:56;;;;;;;0.70;0.70;;;5.80;99.90;;;;;;4965476;28;20044;-82
2022/11/05 03:43:27;;;;;;;0.70;0.70;;;5.70;99.90;;;;;;4956463;28;20090;-82
2022/11/05 03:45:58;;;;;;;0.70;0.70;;;5.80;99.90;;;;;;4971562;28;20397;-83
2022/11/05 03:48:30;;;;;;;0.70;0.70;;;5.60;99.90;;;;;;4968656;28;20132;-82
2022/11/05 03:51:08;;;;;;;0.70;0.70;;;5.60;99.90;;;;;;4971614;28;20075;-82
2022/11/05 03:53:48;;;;;;;0.70;0.70;;;5.50;99.90;;;;;;4963253;28;20041;-81
2022/11/05 03:56:26;;;;;;;0.70;0.70;;;5.60;99.90;;;;;;4972570;28;20455;-82
2022/11/05 03:58:53;;;;;;;0.75;0.75;;;5.70;99.90;;;;;;4976269;28;20044;-82
2022/11/05 04:01:19;;;;;;;0.70;0.70;;;5.60;99.90;;;;;;4978095;28;20669;-82
2022/11/05 04:03:45;;;;;;;0.70;0.70;;;5.80;99.90;;;;;;4990039;28;20470;-83
2022/11/05 04:14:32;;;;;;;0.70;0.70;;;5.90;99.90;;;;;;4957211;28;20051;-82
2022/11/05 04:17:08;;;;;;;0.70;0.70;;;5.90;99.90;;;;;;4956211;28;20609;-82
2022/11/05 04:25:05;;;;;;;0.70;0.70;;;5.80;99.90;;;;;;4969826;28;20568;-82
2022/11/05 04:27:31;;;;;;;0.60;0.60;;;5.70;99.90;;;;;;4964672;28;20156;-83
2022/11/05 04:32:41;;;;;;;0.70;0.70;;;5.80;99.90;;;;;;4963316;28;20087;-82
2022/11/05 04:35:07;;;;;;;0.70;0.70;;;5.90;99.90;;;;;;4972545;28;20048;-82
2022/11/05 04:37:32;;;;;;;0.70;0.70;;;5.70;99.90;;;;;;4973047;28;20565;-82
2022/11/05 04:39:58;;;;;;;0.60;0.60;;;5.80;99.90;;;;;;4988004;28;20138;-82
2022/11/05 04:42:24;;;;;;;0.70;0.70;;;5.80;99.90;;;;;;4981952;28;20435;-81
2022/11/05 04:44:50;;;;;;;0.70;0.70;;;5.70;99.90;;;;;;4982016;28;20066;-82
2022/11/05 04:47:15;;;;;;;0.70;0.70;;;5.60;99.90;;;;;;4974361;28;20051;-82
2022/11/05 04:49:41;;;;;;;0.70;0.70;;;5.70;99.90;;;;;;4973873;28;20544;-81
2022/11/05 04:52:07;;;;;;;0.70;0.70;;;5.80;99.90;;;;;;4981557;28;20051;-83
2022/11/05 04:54:33;;;;;;;0.70;0.70;;;5.70;99.90;;;;;;4970346;28;20044;-83
2022/11/05 04:56:58;;;;;;;0.70;0.70;;;5.80;99.90;;;;;;4972137;28;20573;-83
2022/11/05 04:59:24;;;;;;;0.70;0.70;;;5.80;99.90;;;;;;4978453;28;20079;-82
2022/11/05 05:01:51;;;;;;;0.70;0.70;;;5.80;99.90;;;;;;4954029;28;20457;-82
2022/11/05 05:04:17;;;;;;;0.70;0.70;;;5.80;99.90;;;;;;4976604;28;20105;-82
2022/11/05 05:06:43;;;;;;;0.70;0.70;;;5.60;99.90;;;;;;4973174;28;20345;-82
2022/11/05 05:09:09;;;;;;;0.70;0.70;;;5.80;99.90;;;;;;4981535;28;20091;-81
2022/11/05 05:11:35;;;;;;;0.70;0.70;;;5.50;99.90;;;;;;4964060;28;20131;-82
2022/11/05 05:14:00;;;;;;;0.70;0.70;;;5.70;99.90;;;;;;4980093;28;20145;-83
2022/11/05 05:16:26;;;;;;;0.70;0.70;;;5.70;99.90;;;;;;4976097;28;20051;-82
2022/11/05 05:18:53;;;;;;;0.70;0.70;;;5.60;99.90;;;;;;4955121;28;20510;-84
2022/11/05 05:21:39;;;;;;;0.68;0.68;;;5.60;99.90;;;;;;4967987;28;20048;-83
2022/11/05 05:24:17;;;;;;;0.70;0.70;;;5.60;99.90;;;;;;4974337;28;20060;-83
2022/11/05 05:26:46;;;;;;;0.70;0.70;;;5.60;99.90;;;;;;4981696;28;20327;-82
2022/11/05 05:29:12;;;;;;;0.70;0.70;;;5.80;99.90;;;;;;4971681;28;20040;-82
2022/11/05 05:31:38;;;;;;;0.80;0.80;;;5.60;99.90;;;;;;4956155;28;20105;-83
2022/11/05 05:34:05;;;;;;;0.70;0.70;;;5.70;99.90;;;;;;4961234;28;20526;-82
2022/11/05 05:36:31;;;;;;;0.73;0.73;;;5.70;99.90;;;;;;4970815;28;20072;-83
2022/11/05 05:38:57;;;;;;;0.70;0.70;;;5.60;99.90;;;;;;4959932;28;20575;-82
2022/11/05 05:41:23;;;;;;;0.80;0.80;;;5.70;99.90;;;;;;4969290;28;20040;-83
2022/11/05 05:43:49;;;;;;;0.70;0.70;;;5.80;99.90;;;;;;4956479;28;20060;-83
2022/11/05 05:46:17;;;;;;;0.70;0.70;;;5.70;99.90;;;;;;4979062;28;21016;-82
2022/11/05 05:48:48;;;;;;;0.75;0.75;;;5.70;99.90;;;;;;4978149;28;20056;-82
2022/11/05 05:51:13;;;;;;;0.70;0.70;;;5.60;99.90;;;;;;4971410;28;20051;-82
2022/11/05 05:53:39;;;;;;;0.70;0.70;;;5.60;99.90;;;;;;4958889;28;20052;-82
2022/11/05 05:56:05;;;;;;;0.70;0.70;;;5.70;99.90;;;;;;4972713;28;20047;-82
2022/11/05 05:58:37;;;;;;;0.70;0.70;;;5.70;99.90;;;;;;4970078;28;20048;-82
2022/11/05 06:01:06;;;;;;;0.77;0.77;;;5.80;99.90;;;;;;4970585;28;20628;-82
2022/11/05 06:03:31;;;;;;;0.70;0.70;;;5.80;99.90;;;;;;4969610;28;20044;-81
2022/11/05 06:06:03;;;;;;;0.70;0.70;;;5.70;99.90;;;;;;4963309;28;20091;-81
2022/11/05 06:08:29;;;;;;;0.70;0.70;;;5.80;99.90;;;;;;4968641;28;20097;-82
2022/11/05 06:10:55;;;;;;;0.70;0.70;;;5.70;99.90;;;;;;4957940;28;20049;-82
2022/11/05 06:13:21;;;;;;;0.70;0.70;;;5.80;99.90;;;;;;4976936;28;20052;-82
2022/11/05 06:15:46;;;;;;;0.70;0.70;;;5.70;99.90;;;;;;4964413;28;20040;-82
2022/11/05 06:18:12;;;;;;;0.70;0.70;;;5.70;99.90;;;;;;4969229;28;20144;-81
2022/11/05 06:20:38;;;;;;;0.73;0.73;;;5.60;99.90;;;;;;4970879;28;20850;-83
2022/11/05 06:23:04;;;;;;;0.80;0.80;;;5.90;99.90;;;;;;4980666;28;20055;-82
2022/11/05 06:25:30;;;;;;;0.70;0.70;;;5.80;99.90;;;;;;4975423;28;20052;-82
2022/11/05 06:27:55;;;;;;;0.70;0.70;;;5.80;99.90;;;;;;4987891;28;20584;-82
2022/11/05 06:30:22;;;;;;;0.70;0.70;;;6.00;99.90;;;;;;4990877;28;20039;-82
2022/11/05 06:32:48;;;;;;;0.70;0.70;;;5.90;99.90;;;;;;4970759;28;20039;-82
2022/11/05 06:35:14;;;;;;;0.60;0.60;;;6.00;99.90;;;;;;5019262;28;20048;-83
2022/11/05 06:37:40;;;;;;;0.70;0.70;;;6.10;99.90;;;;;;4998337;28;20040;-83
2022/11/05 06:40:07;;;;;;;0.70;0.70;;;6.20;99.90;;;;;;5005836;28;20459;-83
2022/11/05 06:42:33;;;;;;;0.70;0.70;;;6.20;99.90;;;;;;4979330;28;20595;-83
2022/11/05 06:44:59;;;;;;;0.70;0.70;;;6.50;99.90;;;;;;4992928;28;20540;-82
2022/11/05 06:47:25;;;;;;;0.70;0.70;;;6.50;99.90;;;;;;4991910;28;20058;-84
2022/11/05 06:49:50;;;;;;;0.70;0.70;;;6.60;99.90;;;;;;4992775;28;20051;-83
2022/11/05 06:52:16;;;;;;;0.70;0.70;;;6.70;99.90;;;;;;4973106;28;20934;-83
2022/11/05 06:54:42;;;;;;;0.70;0.70;;;6.60;99.90;;;;;;4979710;28;20242;-84
2022/11/05 06:57:10;;;;;;;0.70;0.70;;;6.60;99.90;;;;;;5008456;28;20452;-83
2022/11/05 06:59:40;;;;;;;0.70;0.70;;;6.70;99.90;;;;;;4996025;28;20095;-84
2022/11/05 07:02:06;;;;;;;0.70;0.70;;;6.80;99.90;;;;;;4978197;28;20550;-83
2022/11/05 07:04:32;;;;;;;0.70;0.70;;;6.70;99.90;;;;;;4992125;28;20053;-83
2022/11/05 07:06:59;;;;;;;0.70;0.70;;;6.70;99.90;;;;;;4994571;28;20576;-83
2022/11/05 07:09:26;;;;;;;0.70;0.70;;;6.70;99.90;;;;;;4991448;28;20040;-84
2022/11/05 07:11:51;;;;;;;0.70;0.70;;;6.70;99.90;;;;;;4992798;28;20477;-83
2022/11/05 07:14:17;;;;;;;0.70;0.70;;;6.70;99.90;;;;;;4996035;28;20125;-83
2022/11/05 07:16:43;;;;;;;0.70;0.70;;;6.80;99.90;;;;;;4960756;28;20044;-84
2022/11/05 07:19:09;;;;;;;0.70;0.70;;;6.70;99.90;;;;;;4991943;28;20139;-82
2022/11/05 07:21:35;;;;;;;0.70;0.70;;;6.70;99.90;;;;;;4997839;28;20035;-84
2022/11/05 07:24:01;;;;;;;0.70;0.70;;;6.70;99.90;;;;;;4981678;28;20091;-83
2022/11/05 07:26:26;;;;;;;0.70;0.70;;;6.60;99.90;;;;;;4975646;28;20584;-82
2022/11/05 07:28:54;;;;;;;0.70;0.70;;;6.50;99.90;;;;;;4974876;28;20248;-83
2022/11/05 07:31:20;;;;;;;0.60;0.60;;;6.60;99.90;;;;;;4982411;28;20147;-84
2022/11/05 07:33:45;;;;;;;0.70;0.70;;;6.70;99.90;;;;;;4977213;28;20044;-83
2022/11/05 07:36:11;;;;;;;0.70;0.70;;;6.80;99.90;;;;;;4954602;28;20510;-84
2022/11/05 07:38:37;;;;;;;0.70;0.70;;;7.00;99.90;;;;;;4972299;28;20722;-84
2022/11/05 07:41:03;;;;;;;0.70;0.70;;;7.20;99.90;;;;;;4973568;28;20048;-83
2022/11/05 07:43:29;;;;;;;0.70;0.70;;;7.20;99.90;;;;;;4965860;28;20187;-83
2022/11/05 07:45:55;;;;;;;0.70;0.70;;;7.30;99.90;;;;;;4937653;28;20056;-83
2022/11/05 07:48:20;;;;;;;0.70;0.70;;;7.40;99.90;;;;;;4969311;28;20056;-84
2022/11/05 07:50:50;;;;;;;0.60;0.60;;;7.60;99.90;;;;;;4971757;28;20127;-83
2022/11/05 07:53:16;;;;;;;0.65;0.65;;;7.70;99.90;;;;;;4971396;28;20427;-83
2022/11/05 07:55:44;;;;;;;0.60;0.60;;;7.70;99.90;;;;;;4954663;28;20524;-85
2022/11/05 07:58:11;;;;;;;0.60;0.60;;;7.90;99.90;;;;;;4976965;28;20052;-84
2022/11/05 08:00:36;;;;;;;0.60;0.60;;;8.20;99.90;;;;;;4978783;28;20342;-87
2022/11/05 08:03:16;;;;;;;0.60;0.60;;;8.40;99.90;;;;;;4984847;28;20771;-90
2022/11/05 08:05:44;;;;;;;0.70;0.70;;;8.60;99.90;;;;;;4954503;28;20610;-88
2022/11/05 08:08:13;;;;;;;0.70;0.70;;;8.60;99.90;;;;;;4958782;28;20393;-83
2022/11/05 08:10:40;;;;;;;0.70;0.70;;;8.40;99.90;;;;;;4973256;28;20055;-83
2022/11/05 08:13:06;;;;;;;0.70;0.70;;;8.50;99.90;;;;;;4975133;28;20044;-85
2022/11/05 08:15:39;;;;;;;0.60;0.60;;;8.20;99.90;;;;;;4953955;28;20466;-82
2022/11/05 08:18:16;;;;;;;0.70;0.70;;;8.20;99.90;;;;;;4968993;28;20055;-84
2022/11/05 08:20:43;;;;;;;0.60;0.60;;;8.30;99.90;;;;;;4983279;28;21018;-88
2022/11/05 08:23:09;;;;;;;0.60;0.60;;;8.50;99.90;;;;;;4976799;28;20563;-83
2022/11/05 08:25:35;;;;;;;0.60;0.60;;;8.60;99.90;;;;;;4958694;28;20555;-83
2022/11/05 08:28:04;;;;;;;0.60;0.60;;;8.70;99.90;;;;;;4958737;28;20433;-87
2022/11/05 08:30:30;;;;;;;0.60;0.60;;;8.80;99.90;;;;;;4933761;28;20140;-85
2022/11/05 08:32:59;;;;;;;0.60;0.60;;;8.90;99.90;;;;;;4951756;28;20080;-83
2022/11/05 08:35:26;;;;;;;0.60;0.60;;;9.00;99.90;;;;;;4952488;28;20437;-84
2022/11/05 08:37:56;;;;;;;0.60;0.60;;;9.10;99.90;;;;;;4955996;28;20411;-86
2022/11/05 08:40:24;;;;;;;0.60;0.60;;;9.10;99.90;;;;;;4943017;28;20163;-86
2022/11/05 08:42:50;;;;;;;0.60;0.60;;;9.20;99.90;;;;;;4940214;28;20785;-85
2022/11/05 08:45:16;;;;;;;0.60;0.60;;;9.30;99.90;;;;;;4925168;28;20923;-86
2022/11/05 08:47:42;;;;;;;0.60;0.60;;;9.30;99.90;;;;;;4938888;28;20047;-85
2022/11/05 08:50:08;;;;;;;0.60;0.60;;;9.50;99.90;;;;;;4961453;28;20049;-85
2022/11/05 08:52:34;;;;;;;0.60;0.60;;;9.50;99.90;;;;;;4936521;28;20482;-86
2022/11/05 08:55:00;;;;;;;0.60;0.60;;;9.60;99.90;;;;;;4951545;28;20076;-87
2022/11/05 08:57:28;;;;;;;0.60;0.60;;;9.70;99.90;;;;;;4949257;28;20073;-86
2022/11/05 08:59:54;;;;;;;0.60;0.60;;;9.80;99.90;;;;;;4943340;28;21048;-84
2022/11/05 09:02:25;;;;;;;0.60;0.60;;;9.80;99.90;;;;;;4940110;28;20037;-90
2022/11/05 09:04:51;;;;;;;0.60;0.60;;;9.90;99.90;;;;;;4943492;28;20375;-89
2022/11/05 09:07:17;;;;;;;0.60;0.60;;;9.90;99.90;;;;;;4955194;28;20470;-85
2022/11/05 09:09:43;;;;;;;0.60;0.60;;;10.00;99.90;;;;;;4933454;28;20118;-85
2022/11/05 09:12:11;;;;;;;0.60;0.60;;;10.00;99.90;;;;;;4969418;28;20088;-86
2022/11/05 09:14:36;;;;;;;0.60;0.60;;;10.00;99.90;;;;;;4934517;28;20104;-83
2022/11/05 09:17:02;;;;;;;0.60;0.60;;;10.00;99.90;;;;;;4956552;28;20431;-83
2022/11/05 09:19:28;;;;;;;0.60;0.60;;;10.00;99.90;;;;;;4955535;28;20541;-86
2022/11/05 09:21:54;;;;;;;0.60;0.60;;;10.10;99.90;;;;;;4925897;28;20445;-84
2022/11/05 09:24:19;;;;;;;0.60;0.60;;;10.10;99.90;;;;;;4938441;28;21010;-84
2022/11/05 09:26:48;;;;;;;0.60;0.60;;;10.10;99.90;;;;;;4964046;28;20145;-82
2022/11/05 09:29:14;;;;;;;0.60;0.60;;;10.20;99.90;;;;;;4949965;28;20040;-85
2022/11/05 09:31:40;;;;;;;0.60;0.60;;;10.30;99.90;;;;;;4953655;28;20420;-84
2022/11/05 09:34:06;;;;;;;0.60;0.60;;;10.30;99.90;;;;;;4952394;28;20099;-83
2022/11/05 09:36:31;;;;;;;0.60;0.60;;;10.30;99.90;;;;;;4955221;28;20512;-87
2022/11/05 09:38:57;;;;;;;0.60;0.60;;;10.50;99.90;;;;;;4958740;28;20079;-83
2022/11/05 09:41:31;;;;;;;0.60;0.60;;;10.60;99.90;;;;;;4960611;28;20040;-84
2022/11/05 09:44:02;;;;;;;0.60;0.60;;;10.60;99.90;;;;;;4951970;28;20049;-83
2022/11/05 09:46:42;;;;;;;0.60;0.60;;;10.60;99.90;;;;;;4928778;28;20522;-84
2022/11/05 09:49:38;;;;;;;0.60;0.60;;;10.60;99.90;;;;;;4947005;28;20084;-85
2022/11/05 09:52:09;;;;;;;0.60;0.60;;;10.70;99.90;;;;;;4956519;28;20041;-84
2022/11/05 09:54:35;;;;;;;0.60;0.60;;;10.80;99.90;;;;;;4953647;28;20293;-83
2022/11/05 09:57:02;;;;;;;0.57;0.57;;;10.80;99.90;;;;;;4952513;28;20819;-82
2022/11/05 09:59:44;;;;;;;0.57;0.57;;;10.80;99.90;;;;;;4967715;28;20068;-83
2022/11/05 10:02:27;;;;;;;0.52;0.52;;;10.90;99.90;;;;;;4942277;28;20081;-83
2022/11/05 10:04:57;;;;;;;0.60;0.60;;;10.90;99.90;;;;;;4952947;28;20044;-83
2022/11/05 10:07:26;;;;;;;0.50;0.50;;;10.90;99.90;;;;;;4935665;28;20073;-86
2022/11/05 10:10:02;;;;;;;0.60;0.60;;;11.00;99.90;;;;;;4950046;28;20048;-84
2022/11/05 10:12:30;;;;;;;0.60;0.60;;;11.00;99.90;;;;;;4932385;28;20055;-86
2022/11/05 10:15:02;;;;;;;0.60;0.60;;;11.00;99.90;;;;;;4955894;28;20513;-86
2022/11/05 10:17:31;;;;;;;0.50;0.50;;;11.10;99.90;;;;;;4946262;28;20116;-85
2022/11/05 10:20:14;;;;;;;0.60;0.60;;;11.30;99.90;;;;;;4955736;28;20450;-87
2022/11/05 10:22:40;;;;;;;0.50;0.50;;;11.40;99.90;;;;;;4951431;28;20098;-87
2022/11/05 10:25:19;;;;;;;0.50;0.50;;;11.30;99.90;;;;;;4955025;28;20674;-88
2022/11/05 10:27:52;;;;;;;0.50;0.50;;;11.30;99.90;;;;;;4961426;28;20465;-86
2022/11/05 10:30:21;;;;;;;0.60;0.60;;;11.50;99.90;;;;;;4981670;28;20040;-86
2022/11/05 10:32:48;;;;;;;0.60;0.60;;;11.60;99.90;;;;;;4976054;28;20294;-85
2022/11/05 10:35:17;;;;;;;0.60;0.60;;;11.60;99.90;;;;;;4953493;28;20100;-85
2022/11/05 10:37:45;;;;;;;0.60;0.60;;;11.60;99.90;;;;;;4973420;28;20052;-86
2022/11/05 10:40:45;;;;;;;0.50;0.50;;;11.80;99.90;;;;;;4978746;28;20048;-86
2022/11/05 10:43:23;;;;;;;0.50;0.50;;;11.90;99.90;;;;;;4971334;28;20281;-88
2022/11/05 10:45:57;;;;;;;0.50;0.50;;;12.00;99.90;;;;;;4975614;28;20050;-86
2022/11/05 10:48:37;;;;;;;0.50;0.50;;;12.10;99.90;;;;;;4978774;28;20182;-87
2022/11/05 10:51:05;;;;;;;0.50;0.50;;;12.10;99.90;;;;;;4981600;28;20040;-85
2022/11/05 10:53:34;;;;;;;0.50;0.50;;;12.10;99.90;;;;;;4974924;28;20052;-88
2022/11/05 10:56:00;;;;;;;0.50;0.50;;;11.90;99.90;;;;;;4977911;28;20548;-86
2022/11/05 10:58:31;;;;;;;0.50;0.50;;;11.90;99.90;;;;;;4954530;28;20051;-86
2022/11/05 11:00:57;;;;;;;0.50;0.50;;;12.10;99.90;;;;;;4970553;28;20076;-90
2022/11/05 11:03:31;;;;;;;0.50;0.50;;;12.20;99.90;;;;;;4971129;28;20101;-89
2022/11/05 11:06:23;;;;;;;0.50;0.50;;;12.20;99.90;;;;;;4989699;28;20892;-92
2022/11/05 11:08:51;;;;;;;0.50;0.50;;;12.20;99.90;;;;;;4976389;28;20117;-87
2022/11/05 11:11:33;;;;;;;0.50;0.50;;;12.20;99.90;;;;;;4974508;28;20582;-86
2022/11/05 11:14:01;;;;;;;0.50;0.50;;;12.30;99.90;;;;;;4965017;28;20052;-88
2022/11/05 11:16:38;;;;;;;0.60;0.60;;;12.20;99.90;;;;;;4959890;28;20049;-90
2022/11/05 11:19:20;;;;;;;0.50;0.50;;;12.40;99.90;;;;;;4965901;28;20170;-90
2022/11/05 11:21:46;;;;;;;0.50;0.50;;;12.50;99.90;;;;;;4973802;28;20047;-90
2022/11/05 11:24:22;;;;;;;0.50;0.50;;;12.60;99.90;;;;;;4944331;28;20063;-89
2022/11/05 11:26:48;;;;;;;0.50;0.50;;;12.60;99.90;;;;;;4935931;28;20114;-88
2022/11/05 11:29:27;;;;;;;0.50;0.50;;;12.60;99.90;;;;;;4985929;28;20626;-88
2022/11/05 11:31:57;;;;;;;0.50;0.50;;;12.60;99.90;;;;;;4979481;28;20345;-89
2022/11/05 11:34:30;;;;;;;0.50;0.50;;;12.90;99.90;;;;;;4940964;28;20933;-89
2022/11/05 11:37:24;;;;;;;0.50;0.50;;;12.70;99.90;;;;;;4976112;28;20049;-87
2022/11/05 11:40:05;;;;;;;;;;;12.90;99.90;;;;;;4985477;28;20501;-92
2022/11/05 11:42:37;;;;;;;0.50;0.50;;;13.30;99.90;;;;;;4965213;28;19925;-87
2022/11/05 11:45:26;;;;;;;0.50;0.50;;;13.60;99.90;;;;;;4971582;28;20137;-89
2022/11/05 11:47:55;;;;;;;0.50;0.50;;;13.90;99.90;;;;;;4966468;28;20062;-83
2022/11/05 11:50:42;;;;;;;0.60;0.60;;;13.90;99.90;;;;;;4975612;28;20123;-91
2022/11/05 11:53:32;;;;;;;0.50;0.50;;;13.60;99.90;;;;;;4976888;28;20144;-88
2022/11/05 11:55:59;;;;;;;0.50;0.50;;;13.60;99.90;;;;;;4980438;28;20627;-88
2022/11/05 11:58:46;;;;;;;0.50;0.50;;;13.40;99.90;;;;;;4958377;28;20605;-88
2022/11/05 12:01:15;;;;;;;0.50;0.50;;;13.50;99.90;;;;;;4984145;28;20567;-87
2022/11/05 12:03:48;;;;;;;0.50;0.50;;;13.50;99.90;;;;;;4987084;28;20155;-85
2022/11/05 12:07:06;;;;;;;0.50;0.50;;;13.60;99.90;;;;;;4972952;28;20045;-87
2022/11/05 12:10:12;;;;;;;0.50;0.50;;;13.50;99.90;;;;;;4948146;28;20834;-89
2022/11/05 12:12:57;;;;;;;0.50;0.50;;;13.10;99.90;;;;;;4951130;28;20394;-87
2022/11/05 12:15:51;;;;;;;0.50;0.50;;;12.90;99.90;;;;;;4971922;28;20548;-86
2022/11/05 12:18:32;;;;;;;0.50;0.50;;;12.90;99.90;;;;;;4955874;28;20831;-86
2022/11/05 12:21:18;;;;;;;0.50;0.50;;;12.90;99.90;;;;;;4972210;28;20094;-86
2022/11/05 12:24:06;;;;;;;0.50;0.50;;;12.80;99.90;;;;;;4977213;28;20049;-87
2022/11/05 12:27:04;;;;;;;0.50;0.50;;;12.70;99.90;;;;;;4969490;28;20578;-87
2022/11/05 12:30:17;;;;;;;0.50;0.50;;;12.70;99.90;;;;;;4952850;28;20568;-89
2022/11/05 12:33:20;;;;;;;0.50;0.50;;;12.70;99.90;;;;;;4919357;28;20921;-90
2022/11/05 12:35:48;;;;;;;0.50;0.50;;;12.50;99.90;;;;;;4960238;28;20560;-86
2022/11/05 12:38:27;;;;;;;0.50;0.50;;;12.60;99.90;;;;;;4965133;28;20303;-85
2022/11/05 12:41:16;;;;;;;0.50;0.50;;;12.60;99.90;;;;;;4975363;28;20056;-85
2022/11/05 12:43:55;;;;;;;0.50;0.50;;;12.50;99.90;;;;;;4958354;28;20048;-83
2022/11/05 12:46:27;;;;;;;0.50;0.50;;;12.50;99.90;;;;;;4971665;28;20047;-86
2022/11/05 12:49:29;;;;;;;0.50;0.50;;;12.60;99.90;;;;;;4973202;28;20486;-85
2022/11/05 12:51:58;;;;;;;0.50;0.50;;;12.60;99.90;;;;;;4971053;28;20066;-85
2022/11/05 12:54:49;;;;;;;0.50;0.50;;;12.60;99.90;;;;;;4966678;28;20505;-85
2022/11/05 12:57:16;;;;;;;0.50;0.50;;;12.50;99.90;;;;;;4974145;28;20337;-82
2022/11/05 12:59:47;;;;;;;0.50;0.50;;;12.40;99.90;;;;;;4997201;28;20319;-86
2022/11/05 13:02:25;;;;;;;0.50;0.50;;;12.40;99.90;;;;;;4952035;28;20555;-86
2022/11/05 13:05:33;;;;;;;0.50;0.50;;;12.30;99.90;;;;;;4965687;28;20794;-84
2022/11/05 13:08:02;;;;;;;0.50;0.50;;;12.30;99.90;;;;;;4970058;28;20789;-86
2022/11/05 13:10:41;;;;;;;0.50;0.50;;;12.40;99.90;;;;;;4965921;28;20523;-86
2022/11/05 13:13:38;;;;;;;0.50;0.50;;;12.40;99.90;;;;;;4963699;28;20389;-87
2022/11/05 13:16:12;;;;;;;0.60;0.60;;;12.40;99.90;;;;;;4956914;28;20048;-88
2022/11/05 13:18:51;;;;;;;0.50;0.50;;;12.40;99.90;;;;;;4963240;28;20105;-87
2022/11/05 13:21:22;;;;;;;0.50;0.50;;;12.30;99.90;;;;;;4979712;28;21069;-89
2022/11/05 13:23:52;;;;;;;0.50;0.50;;;12.30;99.90;;;;;;4998588;28;20956;-84
2022/11/05 13:26:43;;;;;;;0.50;0.50;;;12.30;99.90;;;;;;4988893;28;20048;-85
2022/11/05 13:29:22;;;;;;;0.50;0.50;;;12.30;99.90;;;;;;4975638;28;20051;-87
2022/11/05 13:31:53;;;;;;;0.50;0.50;;;12.20;99.90;;;;;;4976024;28;20048;-86
2022/11/05 13:34:20;;;;;;;0.50;0.50;;;12.30;99.90;;;;;;4975970;28;20044;-87
2022/11/05 13:39:58;;;;;;;0.50;0.50;;;12.10;99.90;;;;;;4995189;28;20055;-85
2022/11/05 13:42:45;;;;;;;0.50;0.50;;;12.10;99.90;;;;;;4997438;28;20771;-90
2022/11/05 13:45:42;;;;;;;0.50;0.50;;;12.10;99.90;;;;;;4987560;28;20857;-85
2022/11/05 13:48:32;;;;;;;0.50;0.50;;;12.10;99.90;;;;;;4975390;28;20544;-84
2022/11/05 13:51:22;;;;;;;0.50;0.50;;;12.10;99.90;;;;;;4988580;28;20615;-87
2022/11/05 13:53:51;;;;;;;0.50;0.50;;;12.00;99.90;;;;;;4970656;28;20052;-87
2022/11/05 13:56:59;;;;;;;0.50;0.50;;;12.00;99.90;;;;;;4988482;28;20612;-83
2022/11/05 13:59:38;;;;;;;0.50;0.50;;;11.90;99.90;;;;;;4991313;28;20318;-85
2022/11/05 14:02:17;;;;;;;0.50;0.50;;;11.80;99.90;;;;;;5001486;28;20112;-85
2022/11/05 14:05:04;;;;;;;0.50;0.50;;;11.80;99.90;;;;;;4993254;28;20411;-88